Terminal Aerodrome Forecast
Issued by NWS Lake Charles, LA

Home | Current Version | Previous Version | Text Only | Print | Product List | Glossary On
Versions: 1 2 3 4 5 6 7 8 9 10 11 12 13 14 15 16 17 18 19 20 21 22 23
000
FTUS44 KLCH 300245 AAD
TAFLCH
TAF AMD
KLCH 300245Z 3003/3024 05010KT P6SM VCTS OVC015CB
      TEMPO 3003/3006 2SM TSRA BKN020CB OVC035
     FM300600 VRB05KT P6SM VCSH OVC015
      TEMPO 3006/3009 VRB20G35KT 2SM TSRA OVC025CB
     FM301200 26008KT P6SM BKN025=

USA.gov is the U.S. government's official web portal to all federal, state and local government web resources and services.